Ingonish, Canada
Current Conditions -  °F | °C
As of 1:00 AM on Saturday 20 Dec 2014 (Local Time) from CYQY Reporting Station
Snow Showers Snow Showers  
Wind Chill: 23°   Ceiling: 1400
Heat Index: 34°   Visibility: 10mi
Dew Point: 30°   Wind: 17mph
Humidity: 87%   Direction: 30°NNE
Pressure: 29.86"   Gusts: NA
Location:  46.69°N, 60.37°W
Report Text: CYQY 200500Z 03015KT 10SM -SHSN OVC014 01/M01 A2986 RMK SC8 SLP115
Loading
Personal Weather Stations






























Interactive Weather Map New forecast layout! Learn more

10-Day Weather Forecast

Advertisements
Track Severe Weather on mobile